createdAt,value
2023-02-15T05:47:12.170Z,35.37
2023-02-15T05:55:43.160Z,36.27
2023-02-15T05:59:28.638Z,36.29
2023-02-15T06:02:27.185Z,36.36
2023-02-15T06:05:41.437Z,36.38
2023-02-15T06:13:29.804Z,34.26
2023-02-15T06:16:50.186Z,33.22
2023-02-15T06:19:39.781Z,33.21
2023-02-15T06:22:29.388Z,32.31
2023-02-15T06:25:18.670Z,31.19
2023-02-15T06:28:08.567Z,31.75
2023-02-15T06:30:57.953Z,30.75
2023-02-15T06:33:47.423Z,31.54
2023-02-15T06:36:37.037Z,31.45
2023-02-15T06:39:26.430Z,31.44
2023-02-15T06:42:15.822Z,31.15
2023-02-15T06:45:07.612Z,31.52
2023-02-15T06:47:57.826Z,31.33
2023-02-15T06:50:47.128Z,31.98
2023-02-15T06:53:37.612Z,31.90
2023-02-15T06:56:26.882Z,31.73
2023-02-15T06:59:16.108Z,30.92
2023-02-15T07:02:05.685Z,30.68
2023-02-15T07:04:55.019Z,31.00
2023-02-15T07:07:44.511Z,30.67
2023-02-15T07:10:33.956Z,29.60
2023-02-15T07:13:23.589Z,29.45
2023-02-15T07:16:12.969Z,28.45
2023-02-15T07:19:02.668Z,28.39
2023-02-15T07:21:51.968Z,28.83
2023-02-15T07:24:41.435Z,28.26
2023-02-15T07:27:30.608Z,28.72
2023-02-15T07:30:20.127Z,28.55
2023-02-15T07:33:24.781Z,27.87
2023-02-15T07:36:14.136Z,28.04
2023-02-15T07:39:03.585Z,28.25
2023-02-15T07:41:53.065Z,28.89
2023-02-15T07:44:42.419Z,29.29
2023-02-15T07:47:31.988Z,29.50
2023-02-15T07:50:21.348Z,30.07
2023-02-15T07:53:10.703Z,29.91
2023-02-15T07:56:08.179Z,30.25
2023-02-15T07:58:59.840Z,30.28
2023-02-15T08:01:48.987Z,30.23
2023-02-15T08:04:38.529Z,30.40
2023-02-15T08:07:27.951Z,29.47
2023-02-15T08:10:37.060Z,29.19
2023-02-15T08:13:26.528Z,28.49
2023-02-15T08:16:16.074Z,28.90
2023-02-15T08:19:11.108Z,28.91
2023-02-15T08:22:06.578Z,29.47
2023-02-15T08:25:01.906Z,29.59
2023-02-15T08:27:53.092Z,31.37
2023-02-15T08:30:42.523Z,31.85
2023-02-15T08:33:31.975Z,31.56
2023-02-15T08:36:23.693Z,30.81
2023-02-15T08:39:14.144Z,32.32
2023-02-15T08:42:03.925Z,30.00
2023-02-15T08:44:53.615Z,30.42
2023-02-15T08:47:42.949Z,30.56
2023-02-15T08:50:32.418Z,29.82
2023-02-15T08:53:23.572Z,29.70
2023-02-15T08:56:14.361Z,28.45
2023-02-15T08:59:28.787Z,28.82
2023-02-15T09:02:18.157Z,29.96
2023-02-15T09:05:07.718Z,29.25
2023-02-15T09:07:57.071Z,30.27
2023-02-15T09:10:46.572Z,28.63
2023-02-15T09:13:36.540Z,29.51
2023-02-15T09:16:28.584Z,28.71
2023-02-15T09:19:19.946Z,28.52
2023-02-15T09:22:09.306Z,28.16
2023-02-15T09:25:01.301Z,27.30
2023-02-15T09:27:50.705Z,27.63
2023-02-15T09:30:40.848Z,28.18
2023-02-15T09:33:30.348Z,27.97
2023-02-15T09:36:25.246Z,28.49
2023-02-15T09:39:18.280Z,29.41
2023-02-15T09:42:43.499Z,29.49
2023-02-15T09:45:49.150Z,29.06
2023-02-15T09:48:41.566Z,28.77
2023-02-15T09:51:28.748Z,28.13
2023-02-15T09:54:15.586Z,28.43
2023-02-15T09:56:57.794Z,27.63
2023-02-15T09:59:57.915Z,27.79
2023-02-15T10:02:44.508Z,28.93
2023-02-15T10:05:51.961Z,28.46
2023-02-15T10:08:35.820Z,28.99
2023-02-15T10:11:35.231Z,29.61
2023-02-15T10:14:23.929Z,29.14
2023-02-15T10:17:11.172Z,29.57
2023-02-15T10:19:46.418Z,30.10
2023-02-15T10:22:42.989Z,30.28
2023-02-15T10:25:42.731Z,30.14
2023-02-15T10:28:43.808Z,29.97
2023-02-15T10:31:23.925Z,30.80
2023-02-15T10:34:17.092Z,30.52
2023-02-15T10:37:26.058Z,29.82
2023-02-15T10:40:25.652Z,29.25
2023-02-15T10:43:00.297Z,29.61
2023-02-15T10:45:55.117Z,30.13
2023-02-15T10:48:27.078Z,29.72
2023-02-15T10:51:06.141Z,30.27
2023-02-15T10:53:52.879Z,30.91
2023-02-15T10:56:24.657Z,31.47
2023-02-15T10:59:23.704Z,32.28
2023-02-15T11:02:16.654Z,32.64
2023-02-15T11:05:10.712Z,33.49
2023-02-15T11:07:46.542Z,34.57
2023-02-15T11:10:30.981Z,34.32
2023-02-15T11:13:05.602Z,33.73
2023-02-15T11:15:59.372Z,33.67
2023-02-15T11:18:38.792Z,33.90
2023-02-15T11:22:13.033Z,34.55
2023-02-15T11:24:46.066Z,34.17
2023-02-15T11:27:20.769Z,33.57
2023-02-15T11:29:49.763Z,34.67
2023-02-15T11:32:39.595Z,34.46
2023-02-15T11:35:23.380Z,33.72
2023-02-15T11:38:10.211Z,33.42
2023-02-15T11:40:51.359Z,33.34
2023-02-15T11:43:28.923Z,33.69
2023-02-15T11:45:58.396Z,33.88
2023-02-15T11:48:27.484Z,34.56
2023-02-15T11:50:56.555Z,34.83
2023-02-15T11:53:29.851Z,35.49
2023-02-15T11:55:58.962Z,35.61
2023-02-15T11:58:51.568Z,35.53
2023-02-15T12:01:38.673Z,35.23
2023-02-15T12:04:24.025Z,36.28
2023-02-15T12:07:09.743Z,36.71
2023-02-15T12:09:54.256Z,37.40
2023-02-15T12:12:25.963Z,38.03
2023-02-15T12:14:57.399Z,38.19
2023-02-15T12:17:31.015Z,38.66
2023-02-15T12:20:19.760Z,38.58
2023-02-15T12:23:14.450Z,38.80
2023-02-15T12:25:57.700Z,39.14
2023-02-15T12:28:38.969Z,39.78
2023-02-15T12:31:23.310Z,40.69
2023-02-15T12:33:55.925Z,41.27
2023-02-15T12:36:26.355Z,41.26
2023-02-15T12:39:16.263Z,41.73
2023-02-15T12:42:10.040Z,42.11
2023-02-15T12:44:39.393Z,42.59
2023-02-15T12:47:12.900Z,42.89
2023-02-15T12:50:18.857Z,43.49
2023-02-15T12:52:53.377Z,43.76
2023-02-15T12:55:29.129Z,44.22
2023-02-15T12:58:19.608Z,44.77
2023-02-15T13:00:49.486Z,45.18
2023-02-15T13:03:22.053Z,45.83
2023-02-15T13:05:55.782Z,46.06
2023-02-15T13:08:33.139Z,46.53
2023-02-15T13:11:14.170Z,48.08
2023-02-15T13:14:05.318Z,47.66
2023-02-15T13:16:40.220Z,48.31
2023-02-15T13:19:35.357Z,48.48
2023-02-15T13:22:30.206Z,48.39
2023-02-15T13:25:03.967Z,49.26
2023-02-15T13:27:42.225Z,49.06
2023-02-15T13:30:29.130Z,49.26
2023-02-15T13:33:02.615Z,50.02
2023-02-15T13:35:46.885Z,50.45
2023-02-15T13:38:53.760Z,50.42
2023-02-15T13:41:35.593Z,50.57
2023-02-15T13:44:05.342Z,50.66
2023-02-15T13:47:21.643Z,50.98
2023-02-15T13:50:13.145Z,51.22
2023-02-15T13:52:59.657Z,51.59
2023-02-15T13:56:03.287Z,51.81
2023-02-15T13:58:53.559Z,51.74
2023-02-15T14:01:42.344Z,52.16
2023-02-15T14:04:28.356Z,51.92
2023-02-15T14:07:47.759Z,51.55
2023-02-15T14:10:36.334Z,52.61
2023-02-15T14:13:26.542Z,52.73
2023-02-15T14:16:12.833Z,52.42
2023-02-15T14:18:46.908Z,53.05
2023-02-15T14:21:27.734Z,52.66
2023-02-15T14:24:14.978Z,52.71
2023-02-15T14:27:15.690Z,52.25
2023-02-15T14:29:59.943Z,52.94
2023-02-15T14:33:13.139Z,52.83
2023-02-15T14:35:44.683Z,54.51
2023-02-15T14:38:29.141Z,53.17
2023-02-15T14:41:26.023Z,52.16
2023-02-15T14:44:10.903Z,52.38
2023-02-15T14:47:03.268Z,52.63
2023-02-15T14:49:39.295Z,53.12
2023-02-15T14:52:10.352Z,53.69
2023-02-15T14:54:39.417Z,54.11
2023-02-15T14:57:08.221Z,53.50
2023-02-15T15:00:00.589Z,53.07
2023-02-15T15:02:49.559Z,53.97
2023-02-15T15:05:48.107Z,54.56
2023-02-15T15:08:43.440Z,54.30
2023-02-15T15:11:52.357Z,53.62
2023-02-15T15:14:42.653Z,54.10
2023-02-15T15:17:39.854Z,54.98
2023-02-15T15:20:36.251Z,54.80
2023-02-15T15:23:17.265Z,54.81
2023-02-15T15:25:47.671Z,54.53
2023-02-15T15:28:34.968Z,55.25
2023-02-15T15:31:51.643Z,54.95
2023-02-15T15:34:44.645Z,55.13
2023-02-15T15:37:44.098Z,55.15
2023-02-15T15:40:45.286Z,55.06
2023-02-15T15:43:38.180Z,55.14
2023-02-15T15:46:13.595Z,54.91
2023-02-15T15:48:44.462Z,57.13
2023-02-15T15:51:21.634Z,57.63
2023-02-15T15:53:55.314Z,57.33
2023-02-15T15:56:34.474Z,56.84
2023-02-15T16:00:03.700Z,56.98
2023-02-15T16:02:53.247Z,57.56
2023-02-15T16:05:22.903Z,57.55
2023-02-15T16:07:52.753Z,57.61
2023-02-15T16:10:27.889Z,57.63
2023-02-15T16:12:58.174Z,57.46
2023-02-15T16:15:38.573Z,58.36
2023-02-15T16:18:07.977Z,58.80
2023-02-15T16:20:39.156Z,59.87
2023-02-15T16:23:30.967Z,59.14
2023-02-15T16:26:38.617Z,59.32
2023-02-15T16:29:29.246Z,59.79
2023-02-15T16:32:21.636Z,59.68
2023-02-15T16:35:07.122Z,60.28
2023-02-15T16:37:39.017Z,60.62
2023-02-15T16:40:09.646Z,60.44
2023-02-15T16:42:39.536Z,61.27
2023-02-15T16:45:17.439Z,60.79
2023-02-15T16:47:52.895Z,61.59
2023-02-15T16:50:37.016Z,61.77
2023-02-15T16:53:11.563Z,61.79
2023-02-15T16:55:44.633Z,62.35
2023-02-15T16:58:20.223Z,62.82
2023-02-15T17:00:50.346Z,62.76
2023-02-15T17:03:27.052Z,62.90
2023-02-15T17:06:02.538Z,63.68
2023-02-15T17:08:46.324Z,64.41
2023-02-15T17:11:21.408Z,64.06
2023-02-15T17:14:10.977Z,64.30
2023-02-15T17:16:55.642Z,64.66
2023-02-15T17:19:35.120Z,64.20
2023-02-15T17:22:08.469Z,63.74
2023-02-15T17:24:43.594Z,64.18
2023-02-15T17:27:25.801Z,64.92
2023-02-15T17:30:00.689Z,64.54
2023-02-15T17:32:34.048Z,64.46
2023-02-15T17:35:23.052Z,64.33
2023-02-15T17:38:02.070Z,64.74
2023-02-15T17:40:36.829Z,66.39
2023-02-15T17:43:05.882Z,66.30
2023-02-15T17:45:38.679Z,66.01
2023-02-15T17:48:08.636Z,66.23
2023-02-15T17:50:38.181Z,66.34
2023-02-15T17:53:10.575Z,66.41
2023-02-15T17:55:43.967Z,65.80
2023-02-15T17:58:15.789Z,66.21
2023-02-15T18:01:06.538Z,66.40
2023-02-15T18:04:02.564Z,66.35
2023-02-15T18:06:50.359Z,66.98
2023-02-15T18:09:40.197Z,66.63
2023-02-15T18:12:33.363Z,66.23
2023-02-15T18:15:02.678Z,67.37
2023-02-15T18:17:36.973Z,67.59
2023-02-15T18:20:16.674Z,67.42
2023-02-15T18:22:47.445Z,67.14
2023-02-15T18:25:18.984Z,67.17
2023-02-15T18:27:48.087Z,67.70
2023-02-15T18:30:19.618Z,67.79
2023-02-15T18:32:52.369Z,67.79
2023-02-15T18:35:24.148Z,68.16
2023-02-15T18:37:54.752Z,68.00
2023-02-15T18:40:28.327Z,68.12
2023-02-15T18:42:58.342Z,68.26
2023-02-15T18:45:33.505Z,67.89
2023-02-15T18:48:02.626Z,68.05
2023-02-15T18:50:35.950Z,68.31
2023-02-15T18:53:07.531Z,68.73
2023-02-15T18:55:37.334Z,68.45
2023-02-15T18:58:06.234Z,68.89
2023-02-15T19:00:36.712Z,68.89
2023-02-15T19:03:07.568Z,69.31
2023-02-15T19:05:39.961Z,68.92
2023-02-15T19:08:19.930Z,68.58
2023-02-15T19:10:49.632Z,69.08
2023-02-15T19:13:19.868Z,69.24
2023-02-15T19:15:50.165Z,69.96
2023-02-15T19:18:20.624Z,70.79
2023-02-15T19:20:50.560Z,70.61
2023-02-15T19:23:25.736Z,70.63
2023-02-15T19:25:55.794Z,70.46
2023-02-15T19:28:33.796Z,70.83
2023-02-15T19:31:02.883Z,70.66
2023-02-15T19:33:31.876Z,71.03
2023-02-15T19:36:01.168Z,70.73
2023-02-15T19:38:36.510Z,70.73
2023-02-15T19:41:10.449Z,71.18
2023-02-15T19:43:39.730Z,72.37
2023-02-15T19:46:09.041Z,70.97
2023-02-15T19:48:38.100Z,70.87
2023-02-15T19:51:06.974Z,70.47
2023-02-15T19:53:36.142Z,70.86
2023-02-15T19:56:05.347Z,70.57
2023-02-15T19:58:35.048Z,70.46
2023-02-15T20:01:05.514Z,70.74
2023-02-15T20:03:35.352Z,70.29
2023-02-15T20:06:04.261Z,70.73
2023-02-15T20:08:33.881Z,70.53
2023-02-15T20:11:02.885Z,70.42
2023-02-15T20:13:32.074Z,70.42
2023-02-15T20:16:06.769Z,70.45
2023-02-15T20:18:36.513Z,70.12
2023-02-15T20:21:07.241Z,69.96
2023-02-15T20:23:38.117Z,70.72
2023-02-15T20:26:19.379Z,70.30
2023-02-15T20:28:49.439Z,70.17
2023-02-15T20:31:21.325Z,70.18
2023-02-15T20:33:50.832Z,70.30
2023-02-15T20:36:21.907Z,70.33
2023-02-15T20:38:50.984Z,70.06
2023-02-15T20:41:38.397Z,69.70
2023-02-15T20:44:20.787Z,69.32
2023-02-15T20:46:51.495Z,68.85
2023-02-15T20:49:20.528Z,69.44
2023-02-15T20:51:49.665Z,69.60
2023-02-15T20:54:21.732Z,69.43
2023-02-15T20:56:51.227Z,69.23
2023-02-15T20:59:29.010Z,68.88
2023-02-15T21:02:16.617Z,68.13
2023-02-15T21:04:45.747Z,68.45
2023-02-15T21:07:22.829Z,68.98
2023-02-15T21:09:53.346Z,68.13
2023-02-15T21:12:23.086Z,68.27
2023-02-15T21:14:51.872Z,68.02
2023-02-15T21:17:20.585Z,68.18
2023-02-15T21:19:49.518Z,68.31
2023-02-15T21:22:18.347Z,68.28
2023-02-15T21:24:52.376Z,67.79
2023-02-15T21:27:21.245Z,67.92
2023-02-15T21:29:50.103Z,68.03
2023-02-15T21:32:19.838Z,68.34
2023-02-15T21:34:48.604Z,67.87
2023-02-15T21:37:34.550Z,67.16
2023-02-15T21:40:07.797Z,67.82
2023-02-15T21:42:55.461Z,67.17
2023-02-15T21:45:42.847Z,67.36
2023-02-15T21:48:12.024Z,67.19
2023-02-15T21:50:59.559Z,67.71
2023-02-15T21:53:37.527Z,66.90
2023-02-15T21:56:07.922Z,66.76
2023-02-15T21:58:38.146Z,66.95
2023-02-15T22:01:08.140Z,67.13
2023-02-15T22:03:40.583Z,66.99
2023-02-15T22:06:13.073Z,65.82
2023-02-15T22:08:42.195Z,66.46
2023-02-15T22:11:18.659Z,66.39
2023-02-15T22:13:48.742Z,66.29
2023-02-15T22:16:23.372Z,65.78
2023-02-15T22:18:52.436Z,66.00
2023-02-15T22:21:21.777Z,65.36
2023-02-15T22:23:50.821Z,65.51
2023-02-15T22:26:25.494Z,65.81
2023-02-15T22:28:54.505Z,65.68
2023-02-15T22:31:24.715Z,66.13
2023-02-15T22:33:55.899Z,65.59
2023-02-15T22:36:27.432Z,65.68
2023-02-15T22:38:58.236Z,65.87
2023-02-15T22:41:31.118Z,64.59
2023-02-15T22:44:01.080Z,64.99
2023-02-15T22:46:30.078Z,63.84
2023-02-15T22:48:59.144Z,63.68
2023-02-15T22:51:27.916Z,64.79
2023-02-15T22:53:56.990Z,64.42
2023-02-15T22:56:45.555Z,63.30
2023-02-15T22:59:22.070Z,62.68
2023-02-15T23:01:51.410Z,62.90
2023-02-15T23:04:23.662Z,62.88
2023-02-15T23:06:54.360Z,62.95
2023-02-15T23:09:23.648Z,64.17
2023-02-15T23:11:54.123Z,64.37
2023-02-15T23:14:35.657Z,63.21
2023-02-15T23:17:04.801Z,63.54
2023-02-15T23:19:33.651Z,63.17
2023-02-15T23:22:02.796Z,63.25
2023-02-15T23:24:35.456Z,63.13
2023-02-15T23:27:22.846Z,63.19
2023-02-15T23:29:52.690Z,63.89
2023-02-15T23:32:22.960Z,64.86
2023-02-15T23:34:51.849Z,63.85
2023-02-15T23:37:20.566Z,62.88
2023-02-15T23:40:07.477Z,63.24
2023-02-15T23:42:37.164Z,63.49
2023-02-15T23:45:24.128Z,62.96
2023-02-15T23:48:12.499Z,63.23
2023-02-15T23:50:41.637Z,63.56
2023-02-15T23:53:11.522Z,64.54
2023-02-15T23:55:44.555Z,64.82
2023-02-15T23:58:19.624Z,64.21
